Time;durP1;ratioP1;P1;durP2;ratioP2;P2;SDS_P1;SDS_P2;PMS_P1;PMS_P2;Temp;Humidity;BMP_temperature;BMP_pressure;BME280_temperature;BME280_humidity;BME280_pressure;Samples;Min_cycle;Max_cycle;Signal;HPM_P1;HPM_P2
2022/11/18 00:02:39;;;;;;;;;9.75;9.25;;;;;;;;5039053;28;51103;-47
2022/11/18 00:05:23;;;;;;;;;18.00;15.25;;;;;;;;5040658;28;51145;-49
2022/11/18 00:08:08;;;;;;;;;20.50;18.00;;;;;;;;5041582;28;51188;-44
2022/11/18 00:10:53;;;;;;;;;14.00;12.50;;;;;;;;5042093;28;51381;-47
2022/11/18 00:16:40;;;;;;;;;10.00;9.25;;;;;;;;5041355;28;51168;-45
2022/11/18 00:19:26;;;;;;;;;24.50;17.75;;;;;;;;5040688;28;51054;-43
2022/11/18 00:22:11;;;;;;;;;20.75;14.75;;;;;;;;5040367;28;51181;-46
2022/11/18 00:24:55;;;;;;;;;18.75;14.75;;;;;;;;5041427;28;51584;-46
2022/11/18 00:27:40;;;;;;;;;19.25;17.50;;;;;;;;5040154;28;51063;-46
2022/11/18 00:30:24;;;;;;;;;16.25;14.50;;;;;;;;5040196;28;51160;-46
2022/11/18 00:33:09;;;;;;;;;11.25;11.00;;;;;;;;5039596;28;51152;-44
2022/11/18 00:35:53;;;;;;;;;23.25;18.50;;;;;;;;5040722;28;51168;-44
2022/11/18 00:38:38;;;;;;;;;21.00;14.75;;;;;;;;5038714;28;51028;-47
2022/11/18 00:41:23;;;;;;;;;13.25;11.50;;;;;;;;5040329;28;51186;-48
2022/11/18 00:44:07;;;;;;;;;20.00;11.75;;;;;;;;5039162;28;51251;-47
2022/11/18 00:46:52;;;;;;;;;12.75;11.00;;;;;;;;5040418;28;51120;-46
2022/11/18 00:49:36;;;;;;;;;12.25;8.75;;;;;;;;5040851;28;51421;-49
2022/11/18 00:52:20;;;;;;;;;10.75;10.00;;;;;;;;5038625;28;51094;-48
2022/11/18 00:55:05;;;;;;;;;14.50;10.25;;;;;;;;5040989;28;51262;-47
2022/11/18 00:57:49;;;;;;;;;10.50;8.75;;;;;;;;5039984;28;51144;-46
2022/11/18 01:00:34;;;;;;;;;16.00;10.25;;;;;;;;5040987;28;51080;-46
2022/11/18 01:03:19;;;;;;;;;17.75;13.00;;;;;;;;5039785;28;51306;-45
2022/11/18 01:06:03;;;;;;;;;11.75;10.75;;;;;;;;5040151;28;51201;-43
2022/11/18 01:08:47;;;;;;;;;11.25;9.75;;;;;;;;5039393;28;51560;-43
2022/11/18 01:14:35;;;;;;;;;14.50;11.25;;;;;;;;5038897;28;51489;-48
2022/11/18 01:17:19;;;;;;;;;14.50;10.00;;;;;;;;5039009;28;51163;-48
2022/11/18 01:20:04;;;;;;;;;16.75;10.75;;;;;;;;5040882;28;51146;-50
2022/11/18 01:22:48;;;;;;;;;11.00;8.75;;;;;;;;5039125;28;51182;-49
2022/11/18 01:25:34;;;;;;;;;11.50;8.75;;;;;;;;5039475;28;51323;-48
2022/11/18 01:28:18;;;;;;;;;14.75;10.50;;;;;;;;5040411;28;51152;-46
2022/11/18 01:31:04;;;;;;;;;12.00;10.75;;;;;;;;5040591;28;51164;-47
2022/11/18 01:33:48;;;;;;;;;10.00;9.00;;;;;;;;5039889;28;52339;-48
2022/11/18 01:36:32;;;;;;;;;14.00;10.25;;;;;;;;5039443;28;51115;-46
2022/11/18 01:39:17;;;;;;;;;14.25;10.75;;;;;;;;5040072;28;51453;-48
2022/11/18 01:42:01;;;;;;;;;12.25;9.50;;;;;;;;5038940;28;51673;-45
2022/11/18 01:45:03;;;;;;;;;10.00;10.00;;;;;;;;5038123;28;51083;-46
2022/11/18 01:47:51;;;;;;;;;19.25;11.25;;;;;;;;5040172;28;51002;-45
2022/11/18 01:50:38;;;;;;;;;15.25;10.50;;;;;;;;5040496;28;51473;-48
2022/11/18 01:53:24;;;;;;;;;13.50;10.25;;;;;;;;5040460;28;51108;-49
2022/11/18 01:56:17;;;;;;;;;15.25;10.75;;;;;;;;5040187;28;51094;-47
2022/11/18 01:59:05;;;;;;;;;11.50;8.75;;;;;;;;5040235;28;51171;-46
2022/11/18 02:01:49;;;;;;;;;14.50;11.75;;;;;;;;5040312;28;51125;-44
2022/11/18 02:04:34;;;;;;;;;10.75;8.00;;;;;;;;5040386;28;51394;-44
2022/11/18 02:07:19;;;;;;;;;14.75;12.25;;;;;;;;5037480;28;51149;-47
2022/11/18 02:10:05;;;;;;;;;12.75;10.75;;;;;;;;5040144;28;51238;-43
2022/11/18 02:12:50;;;;;;;;;14.00;12.25;;;;;;;;5039945;28;51003;-45
2022/11/18 02:15:37;;;;;;;;;12.75;8.00;;;;;;;;5039526;28;51360;-46
2022/11/18 02:18:21;;;;;;;;;11.50;11.25;;;;;;;;5039503;28;51105;-48
2022/11/18 02:21:26;;;;;;;;;14.00;10.00;;;;;;;;5040180;28;51196;-45
2022/11/18 02:24:16;;;;;;;;;14.00;11.75;;;;;;;;5037719;28;51380;-47
2022/11/18 02:27:19;;;;;;;;;12.75;11.00;;;;;;;;5039387;28;51190;-48
2022/11/18 02:30:07;;;;;;;;;14.50;11.00;;;;;;;;5039512;28;51029;-47
2022/11/18 02:33:03;;;;;;;;;14.50;10.50;;;;;;;;5039745;28;51113;-46
2022/11/18 02:36:01;;;;;;;;;11.50;10.50;;;;;;;;5037302;28;51187;-47
2022/11/18 02:38:48;;;;;;;;;11.50;11.00;;;;;;;;5039632;28;51202;-44
2022/11/18 02:41:34;;;;;;;;;15.50;11.75;;;;;;;;5039677;28;51114;-46
2022/11/18 02:44:20;;;;;;;;;12.00;10.25;;;;;;;;5039145;28;51097;-45
2022/11/18 02:47:07;;;;;;;;;17.50;11.50;;;;;;;;5039419;28;51062;-45
2022/11/18 02:49:54;;;;;;;;;11.25;10.50;;;;;;;;5039267;28;51070;-46
2022/11/18 02:52:40;;;;;;;;;17.00;13.50;;;;;;;;5039116;28;51027;-49
2022/11/18 02:55:26;;;;;;;;;12.25;11.00;;;;;;;;5038370;28;51194;-47
2022/11/18 02:58:11;;;;;;;;;15.50;11.00;;;;;;;;5037285;28;51018;-46
2022/11/18 03:00:56;;;;;;;;;11.25;11.25;;;;;;;;5038973;28;51536;-47
2022/11/18 03:03:40;;;;;;;;;16.75;11.00;;;;;;;;5038908;28;51136;-44
2022/11/18 03:06:28;;;;;;;;;11.25;10.25;;;;;;;;5039412;28;51454;-46
2022/11/18 03:09:30;;;;;;;;;17.50;10.75;;;;;;;;5038428;28;51113;-46
2022/11/18 03:12:21;;;;;;;;;17.00;11.75;;;;;;;;5039324;28;51090;-46
2022/11/18 03:15:11;;;;;;;;;12.00;12.00;;;;;;;;5038990;28;51169;-49
2022/11/18 03:18:14;;;;;;;;;11.25;9.00;;;;;;;;5038582;28;51042;-48
2022/11/18 03:21:04;;;;;;;;;10.25;10.25;;;;;;;;5039283;28;51307;-48
2022/11/18 03:24:08;;;;;;;;;14.25;10.75;;;;;;;;5038933;28;51168;-46
2022/11/18 03:27:02;;;;;;;;;13.25;10.25;;;;;;;;5038996;28;51147;-46
2022/11/18 03:29:49;;;;;;;;;12.00;10.00;;;;;;;;5042383;28;51092;-50
2022/11/18 03:32:37;;;;;;;;;14.00;12.75;;;;;;;;5043184;28;51493;-46
2022/11/18 03:35:23;;;;;;;;;20.00;14.00;;;;;;;;5042921;28;50978;-46
2022/11/18 03:38:13;;;;;;;;;15.50;11.50;;;;;;;;5042964;28;51144;-48
2022/11/18 03:41:00;;;;;;;;;17.00;14.00;;;;;;;;5042887;28;51066;-46
2022/11/18 03:43:48;;;;;;;;;16.00;13.50;;;;;;;;5042750;28;51157;-47
2022/11/18 03:46:41;;;;;;;;;15.00;13.25;;;;;;;;5043141;28;51093;-44
2022/11/18 03:49:31;;;;;;;;;15.00;11.25;;;;;;;;5042421;28;51191;-45
2022/11/18 03:52:21;;;;;;;;;12.75;11.25;;;;;;;;5042483;28;51112;-46
2022/11/18 03:55:15;;;;;;;;;15.25;11.50;;;;;;;;5042631;28;51232;-45
2022/11/18 03:58:05;;;;;;;;;16.75;13.00;;;;;;;;5042710;28;51156;-44
2022/11/18 04:00:51;;;;;;;;;14.50;11.50;;;;;;;;5042467;28;51231;-47
2022/11/18 04:03:36;;;;;;;;;14.75;12.00;;;;;;;;5042512;28;50983;-44
2022/11/18 04:06:23;;;;;;;;;15.75;13.75;;;;;;;;5042361;28;51419;-48
2022/11/18 04:09:14;;;;;;;;;15.75;12.50;;;;;;;;5042423;28;51929;-46
2022/11/18 04:12:01;;;;;;;;;11.25;9.75;;;;;;;;5042071;28;51552;-46
2022/11/18 04:14:54;;;;;;;;;14.00;12.00;;;;;;;;5042439;28;51221;-44
2022/11/18 04:17:39;;;;;;;;;17.00;12.75;;;;;;;;5039848;28;51086;-44
2022/11/18 04:20:24;;;;;;;;;13.50;13.50;;;;;;;;5041812;28;51263;-47
2022/11/18 04:23:09;;;;;;;;;23.25;16.50;;;;;;;;5042055;28;51075;-46
2022/11/18 04:25:53;;;;;;;;;17.25;14.00;;;;;;;;5041706;28;51162;-46
2022/11/18 04:28:37;;;;;;;;;14.50;12.50;;;;;;;;5042407;28;51118;-45
2022/11/18 04:31:22;;;;;;;;;16.75;14.25;;;;;;;;5041339;28;50984;-45
2022/11/18 04:34:06;;;;;;;;;25.50;21.25;;;;;;;;5041977;28;51053;-45
2022/11/18 04:36:51;;;;;;;;;29.25;25.25;;;;;;;;5041876;28;51113;-44
2022/11/18 04:39:35;;;;;;;;;31.50;27.00;;;;;;;;5041126;28;51112;-45
2022/11/18 04:42:20;;;;;;;;;34.25;28.50;;;;;;;;5041487;28;51468;-46
2022/11/18 04:45:05;;;;;;;;;52.75;40.75;;;;;;;;5041856;28;51072;-43
2022/11/18 04:47:49;;;;;;;;;58.75;44.50;;;;;;;;5041463;28;51585;-47
2022/11/18 04:50:34;;;;;;;;;69.00;51.75;;;;;;;;5040809;28;51087;-47
2022/11/18 04:53:18;;;;;;;;;91.50;72.75;;;;;;;;5041677;28;51167;-45
2022/11/18 04:56:03;;;;;;;;;71.75;54.50;;;;;;;;5041265;28;51463;-46
2022/11/18 04:58:47;;;;;;;;;74.00;61.50;;;;;;;;5041363;28;51038;-44
2022/11/18 05:01:32;;;;;;;;;69.75;56.50;;;;;;;;5040801;28;51577;-47
2022/11/18 05:04:18;;;;;;;;;67.00;51.75;;;;;;;;5041237;28;51116;-44
2022/11/18 05:07:03;;;;;;;;;63.00;49.00;;;;;;;;5039843;28;51452;-47
2022/11/18 05:09:48;;;;;;;;;56.50;45.00;;;;;;;;5042473;28;51116;-47
2022/11/18 05:12:47;;;;;;;;;50.25;40.25;;;;;;;;5040432;28;51191;-47
2022/11/18 05:15:31;;;;;;;;;49.75;39.75;;;;;;;;5040890;28;51066;-49
2022/11/18 05:18:16;;;;;;;;;48.00;38.00;;;;;;;;5040829;28;51248;-44
2022/11/18 05:21:04;;;;;;;;;50.25;38.75;;;;;;;;5040347;28;51546;-45
2022/11/18 05:23:48;;;;;;;;;52.25;38.75;;;;;;;;5041003;28;51102;-48
2022/11/18 05:26:33;;;;;;;;;55.75;42.50;;;;;;;;5040730;28;51150;-45
2022/11/18 05:29:18;;;;;;;;;50.75;40.75;;;;;;;;5041022;28;51078;-46
2022/11/18 05:32:02;;;;;;;;;51.00;40.75;;;;;;;;5040305;28;51100;-45
2022/11/18 05:34:46;;;;;;;;;52.00;41.00;;;;;;;;5040858;28;51160;-44
2022/11/18 05:37:32;;;;;;;;;51.75;41.50;;;;;;;;5040643;28;51101;-47
2022/11/18 05:40:16;;;;;;;;;54.25;44.75;;;;;;;;5040351;28;51170;-47
2022/11/18 05:43:13;;;;;;;;;55.00;44.00;;;;;;;;5040786;28;52165;-44
2022/11/18 05:45:57;;;;;;;;;54.75;44.00;;;;;;;;5040137;28;51227;-45
2022/11/18 05:48:41;;;;;;;;;54.00;42.50;;;;;;;;5040382;28;51142;-44
2022/11/18 05:51:26;;;;;;;;;53.00;42.00;;;;;;;;5038164;28;51088;-44
2022/11/18 05:54:13;;;;;;;;;46.50;39.25;;;;;;;;5040152;28;51157;-46
2022/11/18 05:56:57;;;;;;;;;53.75;42.75;;;;;;;;5040064;28;51002;-45
2022/11/18 05:59:41;;;;;;;;;56.50;44.25;;;;;;;;5040340;28;51142;-48
2022/11/18 06:02:29;;;;;;;;;56.00;43.75;;;;;;;;5039994;28;51606;-47
2022/11/18 06:05:13;;;;;;;;;52.25;40.75;;;;;;;;5039952;28;51157;-45
2022/11/18 06:07:58;;;;;;;;;56.00;44.00;;;;;;;;5040185;28;51108;-46
2022/11/18 06:10:44;;;;;;;;;57.75;46.50;;;;;;;;5039652;28;51276;-47
2022/11/18 06:13:30;;;;;;;;;62.75;49.00;;;;;;;;5039227;28;51105;-45
2022/11/18 06:16:16;;;;;;;;;62.00;49.50;;;;;;;;5038896;28;51234;-48
2022/11/18 06:19:01;;;;;;;;;58.25;48.00;;;;;;;;5040026;28;51216;-44
2022/11/18 06:21:45;;;;;;;;;61.00;47.00;;;;;;;;5038164;28;51085;-47
2022/11/18 06:24:30;;;;;;;;;64.25;49.75;;;;;;;;5038145;28;51168;-48
2022/11/18 06:27:14;;;;;;;;;59.00;46.50;;;;;;;;5039635;28;51715;-46
2022/11/18 06:29:59;;;;;;;;;61.50;49.00;;;;;;;;5040443;28;51114;-45
2022/11/18 06:32:43;;;;;;;;;60.25;48.75;;;;;;;;5039432;28;51090;-44
2022/11/18 06:35:28;;;;;;;;;62.25;47.50;;;;;;;;5038630;28;51339;-46
2022/11/18 06:38:12;;;;;;;;;62.25;49.25;;;;;;;;5039353;28;51156;-46
2022/11/18 06:41:00;;;;;;;;;63.75;49.50;;;;;;;;5039272;28;51093;-46
2022/11/18 06:43:44;;;;;;;;;60.50;47.25;;;;;;;;5039016;28;51118;-48
2022/11/18 06:49:32;;;;;;;;;61.25;47.25;;;;;;;;5039147;28;51142;-46
2022/11/18 06:52:16;;;;;;;;;61.50;46.75;;;;;;;;5039178;28;51487;-46
2022/11/18 06:55:01;;;;;;;;;58.00;45.00;;;;;;;;5036580;28;51102;-44
2022/11/18 06:57:45;;;;;;;;;57.50;45.00;;;;;;;;5039178;28;51070;-47
2022/11/18 07:00:29;;;;;;;;;52.25;41.75;;;;;;;;5039103;28;51424;-49
2022/11/18 07:03:13;;;;;;;;;52.25;40.25;;;;;;;;5038682;28;51077;-45
2022/11/18 07:05:58;;;;;;;;;56.75;44.50;;;;;;;;5038155;28;51133;-43
2022/11/18 07:08:42;;;;;;;;;56.50;45.00;;;;;;;;5039374;28;51195;-45
2022/11/18 07:11:27;;;;;;;;;54.50;43.25;;;;;;;;5038794;28;52059;-46
2022/11/18 07:14:12;;;;;;;;;63.50;48.50;;;;;;;;5039056;28;51156;-44
2022/11/18 07:16:56;;;;;;;;;69.75;51.00;;;;;;;;5037442;28;51236;-45
2022/11/18 07:19:40;;;;;;;;;66.00;49.00;;;;;;;;5038569;28;51137;-46
2022/11/18 07:22:25;;;;;;;;;61.75;49.25;;;;;;;;5039208;28;51172;-44
2022/11/18 07:25:11;;;;;;;;;60.75;47.00;;;;;;;;5037329;28;51229;-46
2022/11/18 07:27:57;;;;;;;;;61.00;48.25;;;;;;;;5037173;28;51703;-45
2022/11/18 07:30:41;;;;;;;;;57.00;45.25;;;;;;;;5037764;28;51207;-50
2022/11/18 07:33:26;;;;;;;;;57.50;44.50;;;;;;;;5037918;28;51081;-44
2022/11/18 07:36:11;;;;;;;;;53.25;42.50;;;;;;;;5037028;28;51576;-49
2022/11/18 07:38:58;;;;;;;;;51.00;41.25;;;;;;;;5038378;28;51153;-46
2022/11/18 07:41:42;;;;;;;;;55.75;41.50;;;;;;;;5038867;28;51220;-47
2022/11/18 07:44:26;;;;;;;;;49.00;39.75;;;;;;;;5038577;28;51872;-45
2022/11/18 07:47:11;;;;;;;;;47.50;37.00;;;;;;;;5038718;28;50976;-48
2022/11/18 07:49:55;;;;;;;;;53.00;43.00;;;;;;;;5038731;28;51435;-46
2022/11/18 07:52:40;;;;;;;;;47.00;39.50;;;;;;;;5038546;28;51584;-51
2022/11/18 07:55:24;;;;;;;;;44.00;36.00;;;;;;;;5038482;28;51177;-49
2022/11/18 07:58:08;;;;;;;;;46.25;35.25;;;;;;;;5037670;28;51141;-49
2022/11/18 08:00:53;;;;;;;;;41.50;33.75;;;;;;;;5037920;28;51488;-47
2022/11/18 08:03:38;;;;;;;;;40.00;32.75;;;;;;;;5038306;28;51066;-46
2022/11/18 08:06:22;;;;;;;;;38.25;31.00;;;;;;;;5037065;28;51067;-46
2022/11/18 08:09:07;;;;;;;;;35.75;31.00;;;;;;;;5038310;28;51093;-49
2022/11/18 08:11:51;;;;;;;;;39.00;32.75;;;;;;;;5038659;28;51070;-50
2022/11/18 08:14:35;;;;;;;;;38.25;32.50;;;;;;;;5038902;28;51108;-48
2022/11/18 08:17:20;;;;;;;;;18.75;15.50;;;;;;;;5042001;28;51503;-48
2022/11/18 08:20:04;;;;;;;;;18.00;15.50;;;;;;;;5042324;28;51173;-49
2022/11/18 08:22:49;;;;;;;;;18.50;15.50;;;;;;;;5042342;28;51013;-48
2022/11/18 08:25:33;;;;;;;;;16.50;12.50;;;;;;;;5041916;28;51065;-45
2022/11/18 08:28:17;;;;;;;;;19.25;16.00;;;;;;;;5041704;28;51106;-47
2022/11/18 08:31:12;;;;;;;;;20.50;16.75;;;;;;;;5042088;28;51542;-47
2022/11/18 08:33:58;;;;;;;;;19.50;14.25;;;;;;;;5041573;28;51210;-47
2022/11/18 08:36:42;;;;;;;;;12.00;10.00;;;;;;;;5042166;28;51069;-51
2022/11/18 08:39:26;;;;;;;;;18.00;11.25;;;;;;;;5041230;28;51514;-49
2022/11/18 08:42:11;;;;;;;;;16.00;15.50;;;;;;;;5041793;28;51486;-47
2022/11/18 08:44:55;;;;;;;;;20.00;19.00;;;;;;;;5041570;28;51074;-49
2022/11/18 08:47:40;;;;;;;;;15.50;13.25;;;;;;;;5041846;28;51146;-49
2022/11/18 08:50:24;;;;;;;;;19.25;15.75;;;;;;;;5041518;28;51142;-48
2022/11/18 08:53:09;;;;;;;;;14.50;13.00;;;;;;;;5041567;28;51090;-49
2022/11/18 08:55:54;;;;;;;;;14.25;11.75;;;;;;;;5041468;28;51094;-50
2022/11/18 08:58:39;;;;;;;;;18.75;16.25;;;;;;;;5040681;28;51003;-48
2022/11/18 09:01:23;;;;;;;;;13.50;11.25;;;;;;;;5041765;28;50991;-48
2022/11/18 09:04:08;;;;;;;;;16.75;14.00;;;;;;;;5041191;28;51048;-46
2022/11/18 09:06:52;;;;;;;;;16.25;14.00;;;;;;;;5041349;28;51471;-49
2022/11/18 09:09:36;;;;;;;;;16.50;13.00;;;;;;;;5040780;28;51101;-47
2022/11/18 09:12:21;;;;;;;;;14.25;12.75;;;;;;;;5041247;28;51518;-49
2022/11/18 09:15:06;;;;;;;;;18.50;15.50;;;;;;;;5040922;28;51189;-47
2022/11/18 09:17:50;;;;;;;;;15.25;13.50;;;;;;;;5040878;28;51163;-48
2022/11/18 09:20:34;;;;;;;;;20.75;19.00;;;;;;;;5040626;28;51497;-50
2022/11/18 09:23:19;;;;;;;;;12.75;11.00;;;;;;;;5040715;28;51120;-46
2022/11/18 09:26:08;;;;;;;;;18.25;14.75;;;;;;;;5041145;28;51077;-48
2022/11/18 09:28:53;;;;;;;;;16.00;13.25;;;;;;;;5040551;28;51010;-48
2022/11/18 09:31:37;;;;;;;;;15.25;12.75;;;;;;;;5040304;28;51231;-50
2022/11/18 09:34:22;;;;;;;;;16.50;14.25;;;;;;;;5040759;28;51086;-48
2022/11/18 09:37:06;;;;;;;;;18.00;16.00;;;;;;;;5040842;28;51102;-45
2022/11/18 09:39:51;;;;;;;;;16.50;14.25;;;;;;;;5040228;28;51395;-48
2022/11/18 09:42:41;;;;;;;;;15.25;13.00;;;;;;;;5040822;28;51081;-48
2022/11/18 09:45:38;;;;;;;;;13.50;12.75;;;;;;;;5040417;28;51380;-48
2022/11/18 09:49:11;;;;;;;;;11.75;11.50;;;;;;;;5040112;28;51169;-50
2022/11/18 09:51:27;;;;;;;;;13.00;10.00;;;;;;;;5040207;28;51054;-49
2022/11/18 09:54:16;;;;;;;;;16.75;14.25;;;;;;;;5040295;28;51536;-47
2022/11/18 09:57:01;;;;;;;;;11.25;11.25;;;;;;;;5040764;28;52127;-50
2022/11/18 09:59:45;;;;;;;;;15.00;13.25;;;;;;;;5040164;28;51480;-48
2022/11/18 10:02:30;;;;;;;;;14.50;12.75;;;;;;;;5040340;28;51026;-51
2022/11/18 10:05:17;;;;;;;;;17.50;14.75;;;;;;;;5040168;28;51245;-49
2022/11/18 10:08:11;;;;;;;;;13.50;12.00;;;;;;;;5040142;28;50995;-50
2022/11/18 10:11:06;;;;;;;;;14.25;12.75;;;;;;;;5039665;28;51091;-44
2022/11/18 10:14:00;;;;;;;;;17.00;14.25;;;;;;;;5039788;28;51493;-48
2022/11/18 10:16:57;;;;;;;;;14.75;13.75;;;;;;;;5039964;28;51133;-44
2022/11/18 10:19:58;;;;;;;;;12.00;12.00;;;;;;;;5038598;28;51480;-43
2022/11/18 10:22:47;;;;;;;;;17.50;16.25;;;;;;;;5039245;28;51104;-44
2022/11/18 10:25:31;;;;;;;;;16.50;13.50;;;;;;;;5039708;28;51075;-44
2022/11/18 10:28:19;;;;;;;;;14.00;14.00;;;;;;;;5040195;28;51105;-43
2022/11/18 10:31:04;;;;;;;;;17.00;14.00;;;;;;;;5039683;28;51524;-45
2022/11/18 10:33:57;;;;;;;;;16.25;15.00;;;;;;;;5039272;28;51138;-46
2022/11/18 10:36:41;;;;;;;;;15.25;13.50;;;;;;;;5039668;28;51302;-46
2022/11/18 10:39:25;;;;;;;;;14.00;12.75;;;;;;;;5039472;28;51134;-46
2022/11/18 10:42:19;;;;;;;;;13.00;11.25;;;;;;;;5039385;28;50936;-45
2022/11/18 10:45:22;;;;;;;;;14.50;13.25;;;;;;;;5039106;28;51093;-43
2022/11/18 10:48:07;;;;;;;;;14.00;14.00;;;;;;;;5039298;28;51009;-45
2022/11/18 10:50:51;;;;;;;;;20.75;16.00;;;;;;;;5039306;28;51026;-47
2022/11/18 10:53:36;;;;;;;;;14.25;12.25;;;;;;;;5039358;28;51538;-43
2022/11/18 10:56:20;;;;;;;;;13.25;12.75;;;;;;;;5039124;28;51104;-44
2022/11/18 10:59:05;;;;;;;;;18.25;14.75;;;;;;;;5039428;28;51304;-43
2022/11/18 11:02:15;;;;;;;;;19.75;15.75;;;;;;;;5039187;28;51122;-43
2022/11/18 11:05:20;;;;;;;;;14.50;14.50;;;;;;;;5035405;28;51165;-44
2022/11/18 11:08:05;;;;;;;;;17.50;14.50;;;;;;;;5039868;28;51113;-43
2022/11/18 11:10:58;;;;;;;;;18.50;15.50;;;;;;;;5038852;28;51513;-45
2022/11/18 11:13:43;;;;;;;;;15.75;14.00;;;;;;;;5037608;28;51273;-46
2022/11/18 11:16:28;;;;;;;;;10.50;10.50;;;;;;;;5038987;28;51167;-43
2022/11/18 11:19:13;;;;;;;;;15.25;14.25;;;;;;;;5039417;28;51465;-45
2022/11/18 11:21:58;;;;;;;;;14.25;12.25;;;;;;;;5036715;28;51216;-46
2022/11/18 11:24:43;;;;;;;;;15.75;11.75;;;;;;;;5039017;28;51072;-45
2022/11/18 11:27:44;;;;;;;;;13.50;13.00;;;;;;;;5039084;28;51019;-43
2022/11/18 11:30:34;;;;;;;;;13.50;11.75;;;;;;;;5035567;28;51132;-44
2022/11/18 11:33:29;;;;;;;;;15.25;13.00;;;;;;;;5037862;28;52124;-44
2022/11/18 11:36:17;;;;;;;;;14.75;14.25;;;;;;;;5038703;28;51156;-46
2022/11/18 11:39:24;;;;;;;;;14.00;11.75;;;;;;;;5039000;28;51498;-45
2022/11/18 11:42:27;;;;;;;;;14.50;13.00;;;;;;;;5038438;28;51176;-45
2022/11/18 11:45:31;;;;;;;;;15.25;11.50;;;;;;;;5038093;28;51590;-44
2022/11/18 11:48:21;;;;;;;;;13.50;12.25;;;;;;;;5038671;28;51421;-46
2022/11/18 11:51:20;;;;;;;;;17.25;12.75;;;;;;;;5042775;28;51154;-43
2022/11/18 11:54:22;;;;;;;;;14.50;13.00;;;;;;;;5042808;28;51355;-43
2022/11/18 11:57:25;;;;;;;;;12.25;11.00;;;;;;;;5038020;28;51243;-43
2022/11/18 12:00:17;;;;;;;;;16.25;11.50;;;;;;;;5040419;28;51228;-46
2022/11/18 12:03:20;;;;;;;;;11.25;11.00;;;;;;;;5042164;28;51063;-43
2022/11/18 12:06:06;;;;;;;;;12.50;12.50;;;;;;;;5042649;28;51416;-43
2022/11/18 12:09:14;;;;;;;;;16.50;14.50;;;;;;;;5041676;28;51128;-44
2022/11/18 12:12:33;;;;;;;;;13.25;13.25;;;;;;;;5028333;28;51547;-43
2022/11/18 12:15:21;;;;;;;;;15.25;12.75;;;;;;;;5042166;28;51006;-43
2022/11/18 12:18:18;;;;;;;;;16.75;12.50;;;;;;;;5041125;28;51398;-44
2022/11/18 12:21:02;;;;;;;;;14.50;12.00;;;;;;;;5042196;28;51413;-44
2022/11/18 12:24:06;;;;;;;;;14.50;13.00;;;;;;;;5041551;28;51160;-43
2022/11/18 12:26:50;;;;;;;;;15.25;12.50;;;;;;;;5040992;28;51075;-43
2022/11/18 12:29:37;;;;;;;;;10.75;9.50;;;;;;;;5041956;28;52012;-45
2022/11/18 12:32:25;;;;;;;;;12.50;12.50;;;;;;;;5041754;28;51026;-43
2022/11/18 12:35:12;;;;;;;;;11.75;11.75;;;;;;;;5041890;28;51179;-43
2022/11/18 12:37:57;;;;;;;;;15.25;12.00;;;;;;;;5041515;28;51051;-43
2022/11/18 12:40:46;;;;;;;;;16.50;12.50;;;;;;;;5040889;28;51183;-44
2022/11/18 12:43:49;;;;;;;;;14.50;12.00;;;;;;;;5040719;28;51218;-44
2022/11/18 12:46:33;;;;;;;;;15.50;12.25;;;;;;;;5042006;28;51344;-43
2022/11/18 12:49:21;;;;;;;;;12.50;10.00;;;;;;;;5041739;28;51181;-47
2022/11/18 12:52:25;;;;;;;;;11.75;8.25;;;;;;;;5041696;28;51130;-45
2022/11/18 12:55:15;;;;;;;;;12.75;11.50;;;;;;;;5040056;28;51143;-44
2022/11/18 12:58:00;;;;;;;;;14.50;13.00;;;;;;;;5040750;28;51500;-43
2022/11/18 13:00:53;;;;;;;;;13.50;12.00;;;;;;;;5040491;28;51255;-45
2022/11/18 13:03:37;;;;;;;;;14.50;11.50;;;;;;;;5041877;28;51072;-44
2022/11/18 13:06:24;;;;;;;;;16.75;11.75;;;;;;;;5040401;28;51110;-44
2022/11/18 13:09:20;;;;;;;;;17.75;11.50;;;;;;;;5041396;28;50967;-46
2022/11/18 13:12:07;;;;;;;;;14.75;12.50;;;;;;;;5041590;28;51459;-43
2022/11/18 13:18:04;;;;;;;;;18.00;14.25;;;;;;;;5039751;28;51326;-43
2022/11/18 13:20:56;;;;;;;;;19.75;13.50;;;;;;;;5041013;28;51098;-44
2022/11/18 13:23:52;;;;;;;;;13.75;12.25;;;;;;;;5041317;28;51050;-45
2022/11/18 13:26:38;;;;;;;;;15.50;12.75;;;;;;;;5041344;28;51387;-45
2022/11/18 13:29:25;;;;;;;;;21.25;13.50;;;;;;;;5040819;28;51477;-45
2022/11/18 13:32:18;;;;;;;;;17.50;14.00;;;;;;;;5040251;28;50991;-44
2022/11/18 13:35:13;;;;;;;;;18.50;14.75;;;;;;;;5040884;28;51140;-43
2022/11/18 13:37:59;;;;;;;;;14.75;13.00;;;;;;;;5040456;28;51216;-44
2022/11/18 13:41:03;;;;;;;;;16.25;14.00;;;;;;;;5039192;28;51201;-43
2022/11/18 13:43:47;;;;;;;;;15.00;13.75;;;;;;;;5040947;28;51168;-45
2022/11/18 13:46:32;;;;;;;;;19.25;12.75;;;;;;;;5040374;28;51177;-43
2022/11/18 13:49:20;;;;;;;;;20.50;14.75;;;;;;;;5039889;28;51172;-42
2022/11/18 13:52:08;;;;;;;;;14.75;13.00;;;;;;;;5039855;28;51137;-45
2022/11/18 13:54:53;;;;;;;;;16.25;12.50;;;;;;;;5041115;28;51180;-43
2022/11/18 13:57:38;;;;;;;;;13.00;11.25;;;;;;;;5040095;28;52022;-43
2022/11/18 14:00:27;;;;;;;;;14.25;9.50;;;;;;;;5040553;28;51406;-43
2022/11/18 14:03:34;;;;;;;;;10.50;8.50;;;;;;;;5040064;28;50992;-45
2022/11/18 14:06:25;;;;;;;;;9.00;7.00;;;;;;;;5040206;28;51190;-45
2022/11/18 14:09:22;;;;;;;;;9.00;8.25;;;;;;;;5039525;28;51130;-42
2022/11/18 14:12:07;;;;;;;;;11.00;9.75;;;;;;;;5038450;28;51153;-44
2022/11/18 14:14:51;;;;;;;;;13.00;8.00;;;;;;;;5040260;28;51301;-43
2022/11/18 14:17:35;;;;;;;;;14.00;11.00;;;;;;;;5037340;28;51096;-46
2022/11/18 14:20:23;;;;;;;;;17.25;11.75;;;;;;;;5040514;28;51167;-45
2022/11/18 14:23:14;;;;;;;;;11.25;9.00;;;;;;;;5021858;28;51998;-43
2022/11/18 14:26:06;;;;;;;;;9.75;9.50;;;;;;;;5039843;28;51618;-43
2022/11/18 14:29:01;;;;;;;;;10.25;8.75;;;;;;;;5039705;28;51393;-44
2022/11/18 14:32:02;;;;;;;;;10.75;8.75;;;;;;;;5039136;28;51238;-43
2022/11/18 14:34:56;;;;;;;;;13.25;11.00;;;;;;;;5038563;28;51505;-43
2022/11/18 14:37:40;;;;;;;;;7.50;7.50;;;;;;;;5039961;28;51141;-44
2022/11/18 14:40:25;;;;;;;;;11.25;9.50;;;;;;;;5040026;28;51564;-43
2022/11/18 14:43:12;;;;;;;;;15.00;10.50;;;;;;;;5036833;28;51093;-43
2022/11/18 14:46:11;;;;;;;;;10.75;8.25;;;;;;;;5039883;28;51181;-45
2022/11/18 14:48:55;;;;;;;;;10.50;9.75;;;;;;;;5039231;28;51090;-44
2022/11/18 14:51:40;;;;;;;;;14.50;11.25;;;;;;;;5038458;28;51070;-44
2022/11/18 14:54:25;;;;;;;;;8.25;8.25;;;;;;;;5038450;28;51161;-44
2022/11/18 14:57:11;;;;;;;;;12.75;10.50;;;;;;;;5039735;28;51098;-44
2022/11/18 14:59:56;;;;;;;;;12.25;12.00;;;;;;;;5039544;28;51003;-43
2022/11/18 15:02:40;;;;;;;;;12.50;11.00;;;;;;;;5039292;28;51113;-44
2022/11/18 15:05:24;;;;;;;;;13.75;10.75;;;;;;;;5038901;28;51250;-43
2022/11/18 15:08:09;;;;;;;;;13.50;11.00;;;;;;;;5039479;28;51465;-45
2022/11/18 15:10:54;;;;;;;;;13.00;11.75;;;;;;;;5035014;28;51840;-43
2022/11/18 15:13:39;;;;;;;;;11.50;9.00;;;;;;;;5036326;28;51669;-44
2022/11/18 15:16:24;;;;;;;;;16.00;10.75;;;;;;;;5038581;28;51184;-42
2022/11/18 15:19:11;;;;;;;;;12.00;10.50;;;;;;;;5033547;28;51459;-43
2022/11/18 15:21:55;;;;;;;;;12.75;10.25;;;;;;;;5037609;28;51081;-46
2022/11/18 15:24:39;;;;;;;;;11.50;11.00;;;;;;;;5038541;28;51403;-44
2022/11/18 15:27:24;;;;;;;;;22.75;19.00;;;;;;;;5038645;28;51122;-43
2022/11/18 15:30:10;;;;;;;;;25.00;21.50;;;;;;;;5038775;28;51104;-43
2022/11/18 15:32:55;;;;;;;;;20.00;19.25;;;;;;;;5038215;28;51197;-43
2022/11/18 15:35:39;;;;;;;;;21.50;21.00;;;;;;;;5039070;28;51077;-42
2022/11/18 15:38:24;;;;;;;;;28.00;26.25;;;;;;;;5038501;28;51368;-43
2022/11/18 15:41:15;;;;;;;;;29.00;24.25;;;;;;;;5038749;28;51091;-43
2022/11/18 15:43:59;;;;;;;;;29.00;23.50;;;;;;;;5038632;28;50995;-44
2022/11/18 15:46:46;;;;;;;;;46.50;38.50;;;;;;;;5038659;28;51165;-43
2022/11/18 15:49:30;;;;;;;;;16.75;14.00;;;;;;;;5037533;28;51525;-44
2022/11/18 15:52:15;;;;;;;;;38.50;30.25;;;;;;;;5038279;28;51293;-44
2022/11/18 15:55:00;;;;;;;;;26.50;23.00;;;;;;;;5038763;28;51549;-46
2022/11/18 15:57:44;;;;;;;;;24.75;21.50;;;;;;;;5038956;28;51227;-44
2022/11/18 16:00:29;;;;;;;;;27.25;22.25;;;;;;;;5038445;28;51006;-46
2022/11/18 16:03:13;;;;;;;;;55.25;43.25;;;;;;;;5038466;28;51478;-45
2022/11/18 16:05:58;;;;;;;;;35.25;28.50;;;;;;;;5037771;28;51182;-45
2022/11/18 16:08:42;;;;;;;;;48.25;38.75;;;;;;;;5037991;28;51622;-45
2022/11/18 16:14:30;;;;;;;;;66.75;50.75;;;;;;;;5038361;28;51430;-44
2022/11/18 16:17:14;;;;;;;;;55.75;43.50;;;;;;;;5038423;28;51119;-43
2022/11/18 16:19:59;;;;;;;;;41.00;34.25;;;;;;;;5038785;28;51212;-43
2022/11/18 16:22:43;;;;;;;;;32.50;28.50;;;;;;;;5037289;28;51062;-43
2022/11/18 16:25:28;;;;;;;;;34.50;28.75;;;;;;;;5036636;28;51194;-42
2022/11/18 16:28:12;;;;;;;;;34.25;29.00;;;;;;;;5036730;28;51157;-43
2022/11/18 16:34:10;;;;;;;;;34.75;31.75;;;;;;;;5035375;28;51365;-44
2022/11/18 16:36:56;;;;;;;;;47.50;39.00;;;;;;;;5038462;28;51255;-45